Time;durP1;ratioP1;P1;durP2;ratioP2;P2;SDS_P1;SDS_P2;PMS_P1;PMS_P2;Temp;Humidity;BMP_temperature;BMP_pressure;BME280_temperature;BME280_humidity;BME280_pressure;Samples;Min_cycle;Max_cycle;Signal;HPM_P1;HPM_P2
2021/06/29 00:01:22;;;;;;;7.72;6.90;;;;;;;22.53;71.63;101087.03;4805583;29;102300;-66
2021/06/29 00:07:43;;;;;;;6.85;6.15;;;;;;;22.54;71.40;101094.22;4833485;29;103861;-65
2021/06/29 00:10:46;;;;;;;9.35;6.30;;;;;;;22.54;71.00;101094.22;4816254;29;102203;-66
2021/06/29 00:16:40;;;;;;;8.02;6.63;;;;;;;22.54;71.32;101091.44;4813512;29;102944;-66
2021/06/29 00:19:36;;;;;;;7.97;7.18;;;;;;;22.53;71.49;101081.47;4810231;29;104319;-66
2021/06/29 00:22:53;;;;;;;8.70;6.80;;;;;;;22.54;71.55;101085.91;4791172;29;102268;-65
2021/06/29 00:25:39;;;;;;;8.07;7.05;;;;;;;22.52;71.57;101077.09;4757237;29;102402;-65
2021/06/29 00:30:51;;;;;;;8.23;6.63;;;;;;;22.53;71.45;101084.25;4757888;29;103756;-66
2021/06/29 00:33:19;;;;;;;9.98;6.70;;;;;;;22.54;71.52;101083.13;4770717;29;102557;-65
2021/06/29 00:35:45;;;;;;;9.57;7.30;;;;;;;22.52;71.43;101079.88;4842433;28;102596;-65
2021/06/29 00:38:11;;;;;;;7.40;6.63;;;;;;;22.53;71.70;101087.03;4945246;28;102449;-65
2021/06/29 00:40:38;;;;;;;7.22;6.43;;;;;;;22.50;71.66;101076.63;5007467;28;104026;-65
2021/06/29 00:43:05;;;;;;;7.60;6.63;;;;;;;22.51;71.57;101078.25;5006830;28;102467;-65
2021/06/29 00:45:33;;;;;;;7.70;6.38;;;;;;;22.50;71.34;101084.94;5009558;28;102563;-65
2021/06/29 00:48:00;;;;;;;7.25;6.18;;;;;;;22.50;71.55;101088.53;5009637;28;102577;-65
2021/06/29 00:50:28;;;;;;;8.73;6.65;;;;;;;22.51;71.61;101089.34;5008279;28;103912;-65
2021/06/29 00:52:55;;;;;;;7.57;6.30;;;;;;;22.52;71.38;101083.44;5009391;28;102132;-65
2021/06/29 00:55:21;;;;;;;12.90;6.57;;;;;;;22.51;71.18;101083.81;5010437;28;102571;-65
2021/06/29 00:57:51;;;;;;;9.20;7.03;;;;;;;22.51;71.34;101083.81;5010998;28;102610;-65
2021/06/29 01:00:19;;;;;;;6.88;6.18;;;;;;;22.50;71.40;101085.78;5010755;28;105585;-65
2021/06/29 01:02:45;;;;;;;7.38;6.68;;;;;;;22.51;71.52;101072.72;5012240;28;102534;-65
2021/06/29 01:05:12;;;;;;;7.30;6.15;;;;;;;22.49;71.61;101075.00;5011450;28;102610;-65
2021/06/29 01:07:41;;;;;;;9.55;6.70;;;;;;;22.51;71.48;101072.72;5011611;28;102342;-65
2021/06/29 01:10:09;;;;;;;8.77;6.28;;;;;;;22.51;71.36;101069.94;5009125;28;103900;-65
2021/06/29 01:12:36;;;;;;;7.20;6.27;;;;;;;22.49;71.66;101069.47;5006576;28;102721;-65
2021/06/29 01:15:03;;;;;;;6.32;5.53;;;;;;;22.50;71.44;101068.28;5007223;28;103621;-65
2021/06/29 01:17:30;;;;;;;9.07;5.90;;;;;;;22.49;71.69;101064.72;5008329;28;102227;-65
2021/06/29 01:19:56;;;;;;;8.02;6.65;;;;;;;22.50;71.46;101060.81;5007698;28;103932;-65
2021/06/29 01:22:25;;;;;;;6.95;6.25;;;;;;;22.50;71.47;101065.53;5009443;28;102603;-65
2021/06/29 01:24:55;;;;;;;;;;;;;;;22.50;71.71;101065.53;5009445;28;102266;-65
2021/06/29 01:27:38;;;;;;;8.50;6.15;;;;;;;22.48;71.49;101065.06;5007224;28;102571;-65
2021/06/29 01:32:32;;;;;;;7.15;6.45;;;;;;;22.47;71.65;101067.03;5008746;28;102459;-64
2021/06/29 01:35:03;;;;;;;6.95;6.03;;;;;;;22.49;71.52;101070.25;5008308;28;102055;-65
2021/06/29 01:37:31;;;;;;;8.52;6.63;;;;;;;22.49;71.50;101069.47;5009071;28;102190;-65
2021/06/29 01:40:24;;;;;;;7.03;6.30;;;;;;;22.49;71.72;101072.22;5007903;28;103915;-65
2021/06/29 01:42:49;;;;;;;7.68;5.80;;;;;;;22.49;71.58;101075.00;5007267;28;102292;-66
2021/06/29 01:45:16;;;;;;;9.45;5.63;;;;;;;22.48;71.45;101073.41;5007737;28;101978;-65
2021/06/29 01:50:17;;;;;;;8.75;6.60;;;;;;;22.48;71.66;101073.41;5006997;28;103955;-65
2021/06/29 01:52:45;;;;;;;9.35;6.20;;;;;;;22.48;71.65;101070.63;5010126;28;102053;-65
2021/06/29 01:55:13;;;;;;;9.85;6.05;;;;;;;22.48;71.58;101073.41;5005246;28;102294;-64
2021/06/29 01:57:43;;;;;;;7.70;5.72;;;;;;;22.46;71.59;101070.94;5009895;28;102294;-65
2021/06/29 02:00:13;;;;;;;7.32;6.38;;;;;;;22.47;71.52;101066.22;5004347;28;102895;-65
2021/06/29 02:02:39;;;;;;;8.07;6.10;;;;;;;22.46;71.65;101076.50;5008503;28;102127;-65
2021/06/29 02:05:06;;;;;;;7.53;5.95;;;;;;;22.46;71.69;101078.47;5008231;28;102377;-65
2021/06/29 02:07:33;;;;;;;8.05;5.70;;;;;;;22.47;71.53;101072.59;4997309;28;102757;-65
2021/06/29 02:10:01;;;;;;;6.63;5.97;;;;;;;22.48;71.61;101078.94;5010354;28;104869;-65
2021/06/29 02:12:27;;;;;;;7.93;6.53;;;;;;;22.46;71.65;101073.72;5007771;28;102954;-65
2021/06/29 02:14:53;;;;;;;8.77;6.55;;;;;;;22.45;71.40;101077.66;5007971;28;102481;-65
2021/06/29 02:17:20;;;;;;;7.28;5.55;;;;;;;22.46;71.61;101075.69;5007029;28;102995;-66
2021/06/29 02:19:47;;;;;;;7.30;6.05;;;;;;;22.46;71.43;101082.03;5004660;27;104092;-65
2021/06/29 02:22:13;;;;;;;6.72;5.88;;;;;;;22.46;71.62;101086.78;5008370;28;102402;-66
2021/06/29 02:24:40;;;;;;;9.43;6.20;;;;;;;22.45;71.71;101082.41;5007865;28;102569;-65
2021/06/29 02:27:08;;;;;;;9.23;5.78;;;;;;;22.44;71.85;101084.38;5008602;28;102246;-66
2021/06/29 02:29:36;;;;;;;6.43;5.60;;;;;;;22.45;71.85;101085.97;5007691;28;103912;-65
2021/06/29 02:32:02;;;;;;;6.82;6.13;;;;;;;22.47;71.71;101093.97;5005370;28;102464;-65
2021/06/29 02:34:29;;;;;;;8.55;5.72;;;;;;;22.46;71.70;101097.88;5007877;28;102390;-65
2021/06/29 02:36:55;;;;;;;7.60;5.55;;;;;;;22.45;71.85;101101.81;5008979;28;102183;-65
2021/06/29 02:39:22;;;;;;;7.75;6.15;;;;;;;22.45;71.66;101097.06;5006154;28;103826;-65
2021/06/29 02:41:48;;;;;;;8.15;6.28;;;;;;;22.45;71.68;101090.72;5005980;28;102787;-65
2021/06/29 02:44:16;;;;;;;6.90;5.82;;;;;;;22.44;71.59;101102.97;5007868;28;102642;-65
2021/06/29 02:46:43;;;;;;;5.90;5.40;;;;;;;22.44;71.56;101106.53;5007362;28;102271;-65
2021/06/29 02:49:09;;;;;;;8.20;6.25;;;;;;;22.44;71.55;101105.75;5005681;28;103586;-65
2021/06/29 02:51:36;;;;;;;6.72;5.53;;;;;;;22.44;71.46;101102.97;5007445;28;102449;-64
2021/06/29 02:54:03;;;;;;;8.27;6.00;;;;;;;22.46;71.44;101108.97;5008009;28;102461;-65
2021/06/29 02:56:41;;;;;;;7.55;6.13;;;;;;;22.45;71.27;101102.63;5009333;28;102341;-65
2021/06/29 02:59:10;;;;;;;8.40;6.65;;;;;;;22.45;71.23;101096.25;5005194;28;103883;-65
2021/06/29 03:01:38;;;;;;;9.00;6.40;;;;;;;22.45;71.14;101097.06;5007307;28;102188;-65
2021/06/29 03:04:05;;;;;;;7.68;6.07;;;;;;;22.45;71.12;101096.25;5006767;28;102353;-65
2021/06/29 03:06:32;;;;;;;9.50;6.30;;;;;;;22.44;71.27;101100.19;5007316;28;102517;-65
2021/06/29 03:09:00;;;;;;;7.60;6.50;;;;;;;22.43;71.30;101104.09;5005620;28;103945;-65
2021/06/29 03:11:26;;;;;;;9.45;6.93;;;;;;;22.44;71.42;101102.97;5007812;28;102268;-65
2021/06/29 03:13:53;;;;;;;7.35;6.53;;;;;;;22.44;71.54;101091.88;5006600;28;102488;-65
2021/06/29 03:16:20;;;;;;;7.30;6.35;;;;;;;22.45;71.38;101097.06;5008055;28;102224;-65
2021/06/29 03:18:48;;;;;;;6.18;5.57;;;;;;;22.47;71.07;101093.97;4995690;28;105180;-65
2021/06/29 03:21:15;;;;;;;12.97;6.93;;;;;;;22.47;71.49;101093.97;5004917;28;102266;-65
2021/06/29 03:23:42;;;;;;;6.95;6.22;;;;;;;22.47;71.16;101091.19;4993310;28;102468;-65
2021/06/29 03:26:08;;;;;;;7.38;6.10;;;;;;;22.47;71.45;101088.41;5007913;28;102735;-65
2021/06/29 03:28:35;;;;;;;6.90;6.00;;;;;;;22.47;71.37;101088.41;5005654;28;103869;-65
2021/06/29 03:31:01;;;;;;;7.72;6.45;;;;;;;22.45;71.40;101096.25;5005493;28;102909;-66
2021/06/29 03:33:28;;;;;;;6.97;6.07;;;;;;;22.46;71.66;101092.31;5007178;28;102165;-65
2021/06/29 03:35:56;;;;;;;6.90;5.97;;;;;;;22.46;71.40;101086.78;5007756;28;102508;-65
2021/06/29 03:38:23;;;;;;;6.97;5.57;;;;;;;22.45;71.54;101090.72;5006236;28;103467;-65
2021/06/29 03:40:49;;;;;;;8.88;6.13;;;;;;;22.46;71.69;101092.31;5007422;28;102467;-65
2021/06/29 03:43:16;;;;;;;7.28;6.22;;;;;;;22.46;71.54;101086.78;5006736;28;102289;-65
2021/06/29 03:45:42;;;;;;;6.35;5.75;;;;;;;22.47;71.53;101088.41;5006196;28;102101;-66
2021/06/29 03:48:09;;;;;;;8.48;6.00;;;;;;;22.47;71.72;101088.41;5006651;28;104321;-65
2021/06/29 03:50:36;;;;;;;6.28;5.28;;;;;;;22.47;71.76;101092.00;5010246;28;102611;-65
2021/06/29 03:53:04;;;;;;;6.45;5.53;;;;;;;22.47;71.64;101082.88;5009149;28;102463;-65
2021/06/29 03:55:31;;;;;;;6.10;5.50;;;;;;;22.47;71.67;101077.34;5027335;28;102456;-65
2021/06/29 03:57:58;;;;;;;9.43;5.60;;;;;;;22.48;71.75;101079.75;5009144;28;103857;-65
2021/06/29 04:00:25;;;;;;;6.22;5.57;;;;;;;22.48;71.67;101078.94;5009787;28;102518;-65
2021/06/29 04:02:51;;;;;;;6.10;5.32;;;;;;;22.50;71.86;101082.16;4997290;28;102767;-65
2021/06/29 04:05:18;;;;;;;5.35;4.85;;;;;;;22.49;71.88;101086.09;5009992;28;102564;-65
2021/06/29 04:07:47;;;;;;;5.47;4.93;;;;;;;22.50;71.94;101082.16;4998208;28;103724;-65
2021/06/29 04:10:15;;;;;;;6.93;5.32;;;;;;;22.51;71.91;101092.13;5008712;28;102069;-65
2021/06/29 04:12:42;;;;;;;5.93;5.38;;;;;;;22.51;72.16;101084.63;5008060;28;102366;-65
2021/06/29 04:15:10;;;;;;;6.50;5.38;;;;;;;22.51;72.07;101081.84;5009406;28;102551;-65
2021/06/29 04:17:36;;;;;;;6.87;5.53;;;;;;;22.53;72.12;101089.81;5009117;28;103937;-65
2021/06/29 04:20:05;;;;;;;5.47;4.97;;;;;;;22.53;72.00;101093.38;5008504;28;102176;-65
2021/06/29 04:22:31;;;;;;;7.97;5.03;;;;;;;22.54;72.16;101092.25;5009856;28;102017;-65
2021/06/29 04:24:58;;;;;;;7.07;5.22;;;;;;;22.54;72.33;101086.69;5011132;28;102476;-65
2021/06/29 04:27:26;;;;;;;6.03;5.47;;;;;;;22.54;72.15;101083.13;5007675;28;103901;-65
2021/06/29 04:29:53;;;;;;;6.68;5.28;;;;;;;22.55;72.21;101074.44;5009078;28;102262;-65
2021/06/29 04:32:19;;;;;;;5.82;5.32;;;;;;;22.55;72.16;101080.00;5007593;28;102595;-65
2021/06/29 04:34:46;;;;;;;5.32;4.82;;;;;;;22.58;72.10;101067.41;5009951;28;102667;-65
2021/06/29 04:37:13;;;;;;;5.57;5.15;;;;;;;22.58;72.19;101078.50;5007483;28;104260;-65
2021/06/29 04:39:40;;;;;;;6.35;5.40;;;;;;;22.59;72.18;101074.56;5009583;28;104742;-65
2021/06/29 04:42:07;;;;;;;5.35;4.85;;;;;;;22.60;72.19;101086.47;5008700;28;102019;-65
2021/06/29 04:44:38;;;;;;;6.40;5.78;;;;;;;22.60;72.33;101070.63;5010294;28;104176;-65
2021/06/29 04:47:05;;;;;;;5.65;5.15;;;;;;;22.59;72.37;101077.34;5009116;28;104036;-65
2021/06/29 04:49:32;;;;;;;5.55;5.05;;;;;;;22.61;72.18;101085.31;5008827;28;104046;-65
2021/06/29 04:51:59;;;;;;;6.65;5.40;;;;;;;22.61;72.24;101083.38;5008931;28;105100;-66
2021/06/29 04:54:25;;;;;;;5.80;5.32;;;;;;;22.63;72.15;101083.00;5010646;28;102151;-65
2021/06/29 04:56:52;;;;;;;5.55;5.05;;;;;;;22.63;72.25;101081.03;5008919;28;104071;-65
2021/06/29 04:59:18;;;;;;;6.93;5.15;;;;;;;22.63;72.13;101080.25;5005672;28;102221;-65
2021/06/29 05:01:46;;;;;;;5.82;5.22;;;;;;;22.63;72.18;101086.59;5006053;28;102511;-65
2021/06/29 05:04:13;;;;;;;5.57;5.07;;;;;;;22.65;72.17;101089.03;5010216;28;102240;-65
2021/06/29 05:06:40;;;;;;;5.72;4.85;;;;;;;22.66;72.29;101091.47;5005348;28;103333;-65
2021/06/29 05:09:06;;;;;;;5.20;4.80;;;;;;;22.65;72.10;101089.84;5008803;28;103052;-65
2021/06/29 05:11:32;;;;;;;5.85;5.32;;;;;;;22.65;72.15;101089.84;5006314;28;102920;-64
2021/06/29 05:13:59;;;;;;;5.32;4.82;;;;;;;22.66;72.18;101097.00;5007719;28;102832;-65
2021/06/29 05:16:26;;;;;;;5.70;5.20;;;;;;;22.66;72.14;101091.47;5007227;28;103966;-65
2021/06/29 05:18:54;;;;;;;5.43;4.70;;;;;;;22.65;72.25;101087.06;5008373;28;102901;-65
2021/06/29 05:21:20;;;;;;;5.13;4.73;;;;;;;22.66;72.26;101088.69;5006659;28;102306;-65
2021/06/29 05:23:46;;;;;;;5.65;5.15;;;;;;;22.67;72.24;101093.06;5009933;28;102847;-65
2021/06/29 05:26:14;;;;;;;6.32;4.78;;;;;;;22.70;72.17;101092.38;5010171;28;103322;-65
2021/06/29 05:28:41;;;;;;;5.30;4.80;;;;;;;22.71;72.04;101087.63;5009080;28;102200;-65
2021/06/29 05:31:07;;;;;;;5.30;4.88;;;;;;;22.71;71.78;101088.44;5008682;28;104002;-64
2021/06/29 05:33:34;;;;;;;5.50;4.53;;;;;;;22.71;72.23;101094.00;5009087;28;102509;-65
2021/06/29 05:36:02;;;;;;;4.78;4.40;;;;;;;22.72;72.12;101101.19;5006870;28;102931;-65
2021/06/29 05:38:29;;;;;;;7.93;5.15;;;;;;;22.73;71.97;101090.91;5010457;28;102897;-65
2021/06/29 05:40:55;;;;;;;5.75;4.95;;;;;;;22.73;72.40;101088.94;5009604;28;102611;-65
2021/06/29 05:43:22;;;;;;;4.68;4.28;;;;;;;22.74;71.97;101089.72;5010431;28;102151;-65
2021/06/29 05:45:48;;;;;;;5.18;4.68;;;;;;;22.76;71.94;101093.78;5012189;28;104281;-65
2021/06/29 05:48:17;;;;;;;5.35;4.95;;;;;;;22.78;72.08;101090.66;5002191;28;102543;-65
2021/06/29 05:50:44;;;;;;;4.65;4.25;;;;;;;22.79;72.11;101090.31;5005828;28;102102;-65
2021/06/29 05:53:13;;;;;;;4.80;4.40;;;;;;;22.83;71.78;101095.16;5004974;28;104467;-66
2021/06/29 05:55:40;;;;;;;5.28;4.63;;;;;;;22.84;71.88;101094.84;5006532;28;103332;-65
2021/06/29 05:58:08;;;;;;;4.80;4.40;;;;;;;22.85;71.98;101092.88;5006700;28;102625;-65
2021/06/29 06:00:34;;;;;;;4.88;4.47;;;;;;;22.87;71.59;101090.56;5007446;28;102611;-65
2021/06/29 06:03:01;;;;;;;4.57;4.18;;;;;;;22.88;71.88;101095.75;5009252;28;102360;-65
2021/06/29 06:05:27;;;;;;;4.38;4.07;;;;;;;22.91;71.67;101097.03;5007632;28;103874;-65
2021/06/29 06:07:55;;;;;;;4.07;3.78;;;;;;;22.91;71.81;101092.28;5008143;28;102063;-64
2021/06/29 06:10:23;;;;;;;4.50;4.10;;;;;;;22.93;71.64;101103.06;5006620;28;102215;-65
2021/06/29 06:12:50;;;;;;;4.85;4.45;;;;;;;22.94;71.66;101102.75;5007078;28;102858;-64
2021/06/29 06:15:16;;;;;;;4.13;3.83;;;;;;;22.96;71.66;101099.59;5006786;28;103914;-65
2021/06/29 06:17:43;;;;;;;4.47;4.18;;;;;;;22.97;71.65;101102.06;5005860;28;102153;-65
2021/06/29 06:20:10;;;;;;;4.50;4.10;;;;;;;22.98;71.69;101097.31;5003417;28;103428;-65
2021/06/29 06:22:37;;;;;;;4.63;4.25;;;;;;;23.00;71.43;101097.75;5005786;28;102414;-65
2021/06/29 06:25:06;;;;;;;4.65;4.25;;;;;;;23.00;71.49;101100.53;5003890;28;103897;-65
2021/06/29 06:27:33;;;;;;;5.22;4.60;;;;;;;23.02;71.56;101109.34;5002861;28;102120;-65
2021/06/29 06:30:27;;;;;;;7.30;4.78;;;;;;;23.03;71.17;101099.84;4976645;28;102647;-66
2021/06/29 06:32:54;;;;;;;4.70;4.30;;;;;;;23.05;71.43;101096.75;5004591;28;102408;-65
2021/06/29 06:35:20;;;;;;;4.57;4.18;;;;;;;23.04;71.76;101101.44;5007575;28;103677;-65
2021/06/29 06:37:47;;;;;;;4.75;4.35;;;;;;;23.05;71.41;101097.53;5006061;28;102230;-65
2021/06/29 06:40:14;;;;;;;4.80;4.40;;;;;;;23.07;71.73;101089.66;4997796;28;102524;-65
2021/06/29 06:42:42;;;;;;;4.43;4.03;;;;;;;23.08;71.22;101096.84;5001938;28;103731;-65
2021/06/29 06:45:10;;;;;;;4.20;3.90;;;;;;;23.08;71.40;101105.19;5007438;28;103690;-64
2021/06/29 06:47:37;;;;;;;4.07;3.78;;;;;;;23.10;71.26;101102.03;4998489;28;102230;-65
2021/06/29 06:50:06;;;;;;;4.50;4.15;;;;;;;23.11;71.42;101093.34;5005905;28;102178;-65
2021/06/29 06:52:34;;;;;;;4.53;4.03;;;;;;;23.11;71.33;101098.91;5001619;28;103598;-65
2021/06/29 06:55:02;;;;;;;4.10;3.80;;;;;;;23.12;71.17;101103.31;5003179;28;104486;-65
2021/06/29 06:57:28;;;;;;;4.03;3.72;;;;;;;23.14;71.17;101106.53;5008221;28;102103;-65
2021/06/29 06:59:56;;;;;;;4.82;4.43;;;;;;;23.15;71.15;101101.81;5006647;28;102754;-65
2021/06/29 07:02:23;;;;;;;4.57;4.17;;;;;;;23.16;71.24;101109.81;5004918;28;102550;-65
2021/06/29 07:04:49;;;;;;;4.45;4.05;;;;;;;23.16;71.07;101109.81;5005104;28;103871;-65
2021/06/29 07:07:16;;;;;;;4.53;4.13;;;;;;;23.17;71.24;101102.28;5007660;28;102348;-65
2021/06/29 07:09:43;;;;;;;4.35;3.95;;;;;;;23.16;71.19;101104.25;5006528;28;102399;-65
2021/06/29 07:12:10;;;;;;;4.35;3.97;;;;;;;23.18;70.92;101104.69;5004844;28;102461;-65
2021/06/29 07:14:37;;;;;;;4.68;4.28;;;;;;;23.19;71.02;101106.34;5004409;28;104133;-65
2021/06/29 07:17:05;;;;;;;4.10;3.80;;;;;;;23.20;71.01;101107.13;5002581;28;102962;-65
2021/06/29 07:19:31;;;;;;;4.43;4.03;;;;;;;23.20;71.04;101105.16;5006176;28;102655;-65
2021/06/29 07:21:59;;;;;;;4.40;4.10;;;;;;;23.20;71.15;101098.81;5005883;28;102912;-65
2021/06/29 07:24:26;;;;;;;4.05;3.75;;;;;;;23.21;71.29;101100.41;5007219;28;103920;-65
2021/06/29 07:26:52;;;;;;;4.57;4.05;;;;;;;23.21;70.99;101101.22;5009818;28;102383;-65
2021/06/29 07:29:19;;;;;;;4.35;3.95;;;;;;;23.23;71.23;101104.47;5009467;28;102809;-65
2021/06/29 07:31:45;;;;;;;4.10;3.70;;;;;;;23.22;71.09;101102.88;5009240;28;102368;-64
2021/06/29 07:34:13;;;;;;;4.40;4.00;;;;;;;23.22;70.98;101108.41;5005172;28;103930;-66
2021/06/29 07:36:41;;;;;;;4.57;4.18;;;;;;;23.24;71.11;101110.84;5009968;28;102016;-65
2021/06/29 07:39:07;;;;;;;4.45;4.05;;;;;;;23.24;70.89;101110.84;5005193;28;102195;-65
2021/06/29 07:41:34;;;;;;;4.43;4.03;;;;;;;23.24;70.79;101108.88;5007185;28;102451;-66
2021/06/29 07:44:01;;;;;;;4.25;3.90;;;;;;;23.24;71.16;101113.59;5008863;28;103995;-66
2021/06/29 07:46:28;;;;;;;4.22;3.92;;;;;;;23.25;70.97;101113.25;5008468;28;102674;-65
2021/06/29 07:48:55;;;;;;;4.10;3.80;;;;;;;23.27;71.09;101119.28;5009586;28;101963;-67
2021/06/29 07:51:23;;;;;;;4.00;3.70;;;;;;;23.29;70.74;101118.91;5010344;28;102393;-65
2021/06/29 07:53:50;;;;;;;4.15;3.75;;;;;;;23.30;70.84;101114.16;5008125;28;103784;-65
2021/06/29 07:56:17;;;;;;;5.00;4.00;;;;;;;23.31;70.96;101119.41;5006136;28;102454;-65
2021/06/29 07:58:45;;;;;;;4.65;4.25;;;;;;;23.32;70.75;101111.88;5009343;28;102122;-65
2021/06/29 08:01:12;;;;;;;4.25;3.85;;;;;;;23.33;70.85;101117.06;5008104;28;102775;-65
2021/06/29 08:03:38;;;;;;;4.53;4.15;;;;;;;23.33;70.88;101113.47;5006770;28;103867;-65
2021/06/29 08:06:05;;;;;;;4.28;3.88;;;;;;;23.38;70.85;101116.03;5008454;28;103010;-59
2021/06/29 08:08:33;;;;;;;5.30;4.20;;;;;;;23.38;70.66;101122.41;5008550;28;102305;-63
2021/06/29 08:11:01;;;;;;;4.25;3.95;;;;;;;23.39;70.72;101120.44;5009463;28;102375;-63
2021/06/29 08:13:28;;;;;;;4.22;3.92;;;;;;;23.37;70.74;101114.41;5008135;28;103938;-64
2021/06/29 08:15:54;;;;;;;4.25;3.92;;;;;;;23.36;70.30;101123.91;5008949;28;102517;-63
2021/06/29 08:18:23;;;;;;;4.32;3.92;;;;;;;23.35;70.86;101117.53;5004576;28;103540;-63
2021/06/29 08:20:50;;;;;;;4.32;4.03;;;;;;;23.35;70.84;101108.41;5009873;28;103190;-63
2021/06/29 08:23:17;;;;;;;4.00;3.70;;;;;;;23.36;70.79;101119.16;5002746;28;104029;-63
2021/06/29 08:25:45;;;;;;;4.13;3.83;;;;;;;23.38;70.85;101116.03;5006491;28;102473;-63
2021/06/29 08:28:12;;;;;;;3.83;3.53;;;;;;;23.36;70.81;101121.13;5008441;28;102330;-63
2021/06/29 08:30:39;;;;;;;4.00;3.70;;;;;;;23.34;70.92;101109.56;5009790;28;102399;-63
2021/06/29 08:33:10;;;;;;;4.15;3.70;;;;;;;23.33;70.78;101102.38;5007689;28;103929;-63
2021/06/29 08:35:37;;;;;;;4.15;3.70;;;;;;;23.31;70.79;101105.50;5008528;28;102488;-63
2021/06/29 08:38:03;;;;;;;4.18;3.80;;;;;;;23.32;70.84;101100.75;5005094;28;102720;-63
2021/06/29 08:40:31;;;;;;;4.47;4.18;;;;;;;23.31;70.86;101096.38;5008491;28;102608;-63
2021/06/29 08:43:00;;;;;;;4.27;3.97;;;;;;;23.31;70.78;101099.16;5001711;28;103596;-64
2021/06/29 08:45:28;;;;;;;4.35;4.05;;;;;;;23.32;70.79;101103.53;5019605;28;102369;-63
2021/06/29 08:47:54;;;;;;;4.43;4.03;;;;;;;23.31;70.87;101104.69;5013256;27;102350;-63
2021/06/29 08:50:23;;;;;;;4.80;4.30;;;;;;;23.31;70.72;101110.25;5010927;28;102860;-63
2021/06/29 08:52:50;;;;;;;3.95;3.65;;;;;;;23.31;70.70;101104.69;5009239;28;103851;-63
2021/06/29 08:55:17;;;;;;;3.83;3.53;;;;;;;23.31;70.66;101099.16;5009977;28;102086;-63
2021/06/29 08:57:43;;;;;;;4.40;4.00;;;;;;;23.31;70.78;101104.69;5010471;28;102041;-63
2021/06/29 09:00:13;;;;;;;4.53;4.13;;;;;;;23.31;70.78;101099.16;5009037;28;102109;-63
2021/06/29 09:02:41;;;;;;;4.00;3.70;;;;;;;23.31;70.73;101096.38;5008503;28;103768;-64
2021/06/29 09:05:18;;;;;;;4.37;3.97;;;;;;;23.31;70.83;101093.59;5010263;28;102592;-63
2021/06/29 09:07:46;;;;;;;3.92;3.63;;;;;;;23.31;70.59;101090.81;5007983;28;102741;-63
2021/06/29 09:10:12;;;;;;;4.15;3.65;;;;;;;23.31;70.71;101090.81;5013108;28;102432;-64
2021/06/29 09:12:45;;;;;;;4.10;3.80;;;;;;;23.29;70.83;101088.38;5007032;28;103581;-64
2021/06/29 09:15:35;;;;;;;3.97;3.67;;;;;;;23.31;70.97;101091.63;5012640;28;102552;-63
2021/06/29 09:18:16;;;;;;;4.43;4.03;;;;;;;23.31;70.89;101093.59;5006584;28;101921;-64
2021/06/29 09:20:45;;;;;;;3.95;3.65;;;;;;;23.29;70.70;101088.38;5009231;28;102514;-63
2021/06/29 09:23:16;;;;;;;4.40;4.00;;;;;;;23.31;70.54;101088.03;5008147;28;103906;-64
2021/06/29 09:25:44;;;;;;;4.22;3.92;;;;;;;23.29;70.68;101084.78;5010627;28;102410;-63
2021/06/29 09:28:15;;;;;;;4.18;3.88;;;;;;;23.29;70.74;101076.47;5008951;28;102015;-63
2021/06/29 09:30:46;;;;;;;3.97;3.63;;;;;;;23.29;70.70;101085.59;4999302;28;102068;-63
2021/06/29 09:33:16;;;;;;;5.05;4.55;;;;;;;23.27;70.86;101077.63;5007354;28;104018;-63
2021/06/29 09:35:46;;;;;;;4.03;3.72;;;;;;;23.27;70.76;101088.72;5011245;28;102171;-63
2021/06/29 09:38:20;;;;;;;4.05;3.75;;;;;;;23.28;70.64;101081.22;5009513;28;102327;-63
2021/06/29 09:40:47;;;;;;;3.92;3.58;;;;;;;23.28;70.74;101084.00;4996167;28;102581;-63
2021/06/29 09:43:15;;;;;;;4.20;3.90;;;;;;;23.27;70.81;101076.81;5008609;28;103957;-63
2021/06/29 09:45:47;;;;;;;;;;;;;;;23.26;70.84;101073.25;5008541;28;102639;-63
2021/06/29 09:48:15;;;;;;;4.00;3.70;;;;;;;23.27;70.93;101071.25;5004682;28;102706;-64
2021/06/29 09:50:49;;;;;;;3.80;3.50;;;;;;;23.26;70.69;101075.19;5022978;28;102297;-63
2021/06/29 09:53:22;;;;;;;4.05;3.75;;;;;;;23.25;70.75;101066.03;5007807;28;103837;-64
2021/06/29 09:55:52;;;;;;;3.85;3.55;;;;;;;23.23;70.88;101065.59;4997334;28;102565;-64
2021/06/29 09:58:19;;;;;;;4.25;3.95;;;;;;;23.24;70.84;101070.00;5006576;28;102294;-63
2021/06/29 10:00:50;;;;;;;4.00;3.70;;;;;;;23.23;70.91;101060.06;5010528;28;102277;-64
2021/06/29 10:03:26;;;;;;;4.97;4.57;;;;;;;23.22;71.00;101064.00;5006027;28;104032;-63
2021/06/29 10:05:53;;;;;;;4.53;3.97;;;;;;;23.23;70.78;101056.47;5006414;28;102529;-63
2021/06/29 10:08:32;;;;;;;4.20;3.90;;;;;;;23.24;70.79;101063.63;5007341;28;102362;-63
2021/06/29 10:11:19;;;;;;;;;;;;;;;23.23;70.76;101065.59;5008605;28;102457;-63
2021/06/29 10:13:49;;;;;;;3.90;3.63;;;;;;;23.23;71.03;101067.56;5007111;28;104077;-63
2021/06/29 10:16:21;;;;;;;4.53;3.60;;;;;;;23.24;70.97;101061.66;5008784;28;102220;-63
2021/06/29 10:18:53;;;;;;;4.30;4.00;;;;;;;23.22;71.01;101055.66;5006215;28;102410;-63
2021/06/29 10:21:22;;;;;;;4.28;3.97;;;;;;;23.20;70.94;101060.75;4999389;28;102859;-63
2021/06/29 10:23:54;;;;;;;4.10;3.80;;;;;;;23.20;71.11;101068.28;5000398;28;102841;-63
2021/06/29 10:26:23;;;;;;;4.15;3.85;;;;;;;23.18;71.23;101063.03;5016651;27;102416;-63
2021/06/29 10:28:51;;;;;;;4.07;3.78;;;;;;;23.17;71.40;101053.09;5007095;28;102683;-64
2021/06/29 10:31:23;;;;;;;4.07;3.77;;;;;;;23.18;71.42;101070.56;5004738;28;102455;-64
2021/06/29 10:33:50;;;;;;;4.20;3.90;;;;;;;23.18;71.26;101067.78;5025404;28;103870;-63
2021/06/29 10:36:18;;;;;;;3.70;3.47;;;;;;;23.16;71.14;101059.81;5010024;28;102735;-63
2021/06/29 10:38:46;;;;;;;3.95;3.65;;;;;;;23.18;71.28;101062.25;5009113;28;102133;-63
2021/06/29 10:41:13;;;;;;;4.45;4.05;;;;;;;23.16;71.16;101065.38;5010997;28;102670;-64
2021/06/29 10:43:41;;;;;;;3.63;3.42;;;;;;;23.16;71.27;101057.03;5012653;28;102769;-64
2021/06/29 10:46:33;;;;;;;3.97;3.67;;;;;;;23.16;71.21;101048.72;5007524;28;103132;-63
2021/06/29 10:49:33;;;;;;;4.18;3.88;;;;;;;23.15;71.40;101049.06;5020193;27;102816;-64
2021/06/29 10:52:02;;;;;;;4.13;3.83;;;;;;;23.14;71.41;101055.78;5008601;28;102649;-64
2021/06/29 10:54:46;;;;;;;4.10;3.80;;;;;;;23.14;71.48;101051.03;5007522;28;104162;-65
2021/06/29 10:57:16;;;;;;;4.00;3.70;;;;;;;23.12;71.16;101049.78;5005925;28;104262;-64
2021/06/29 10:59:47;;;;;;;4.22;3.80;;;;;;;23.12;71.61;101047.00;5005540;28;102510;-64
2021/06/29 11:02:27;;;;;;;4.15;3.78;;;;;;;23.11;71.44;101039.81;5010059;28;102414;-64
2021/06/29 11:04:58;;;;;;;4.53;4.10;;;;;;;23.12;71.49;101042.25;5007593;28;104193;-65
2021/06/29 11:07:43;;;;;;;4.80;4.40;;;;;;;23.12;71.31;101047.81;5016577;28;102643;-64
2021/06/29 11:10:12;;;;;;;4.25;3.95;;;;;;;23.12;71.35;101035.91;5007225;28;102302;-63
2021/06/29 11:12:47;;;;;;;3.97;3.67;;;;;;;23.11;71.30;101045.34;5008709;28;102480;-64
2021/06/29 11:15:15;;;;;;;4.43;4.10;;;;;;;23.11;71.45;101035.06;5009966;28;103883;-64
2021/06/29 11:17:53;;;;;;;3.90;3.60;;;;;;;23.11;71.35;101034.25;5006975;28;102133;-64
2021/06/29 11:20:23;;;;;;;4.07;3.78;;;;;;;23.11;71.30;101034.25;5009805;28;102356;-64
2021/06/29 11:23:00;;;;;;;4.00;3.70;;;;;;;23.12;71.31;101036.69;5009162;28;102502;-64
2021/06/29 11:25:38;;;;;;;4.15;3.85;;;;;;;23.12;71.42;101033.91;5009058;28;103855;-64
2021/06/29 11:28:08;;;;;;;4.10;3.80;;;;;;;23.12;71.42;101031.16;5002228;28;106016;-63
2021/06/29 11:30:55;;;;;;;4.18;3.88;;;;;;;23.13;71.31;101037.50;5007221;28;102377;-64
2021/06/29 11:33:54;;;;;;;9.35;4.53;;;;;;;23.17;71.01;101032.88;5007003;28;102554;-64
2021/06/29 11:36:43;;;;;;;3.92;3.63;;;;;;;23.20;70.96;101024.66;5002414;28;102817;-64
2021/06/29 11:39:35;;;;;;;4.10;3.80;;;;;;;23.19;71.17;101031.38;5010812;28;102579;-64
2021/06/29 11:42:11;;;;;;;3.83;3.53;;;;;;;23.17;71.18;101022.56;5007232;28;103249;-65